createdAt,value
2022-08-17T00:02:26.092Z,19.00
2022-08-17T00:17:29.365Z,18.88
2022-08-17T00:33:22.800Z,18.82
2022-08-17T00:48:04.132Z,18.79
2022-08-17T01:03:26.369Z,18.67
2022-08-17T01:18:28.986Z,18.55
2022-08-17T01:33:31.092Z,18.25
2022-08-17T01:48:36.168Z,18.17
2022-08-17T02:03:38.966Z,18.06
2022-08-17T02:18:41.784Z,17.97
2022-08-17T02:33:43.925Z,17.86
2022-08-17T02:48:46.005Z,17.78
2022-08-17T03:03:48.326Z,17.69
2022-08-17T03:18:50.365Z,17.71
2022-08-17T03:33:52.326Z,17.66
2022-08-17T03:49:13.067Z,17.68
2022-08-17T04:04:15.307Z,17.89
2022-08-17T04:19:17.298Z,18.55
2022-08-17T04:34:19.994Z,19.61
2022-08-17T04:49:22.434Z,20.48
2022-08-17T05:04:33.802Z,21.24
2022-08-17T05:19:37.434Z,21.77
2022-08-17T05:34:39.586Z,22.30
2022-08-17T05:49:41.750Z,22.74
2022-08-17T06:05:01.127Z,23.24
2022-08-17T06:20:09.049Z,23.30
2022-08-17T06:35:14.383Z,23.85
2022-08-17T06:50:36.249Z,24.04
2022-08-17T07:05:41.367Z,24.75
2022-08-17T07:20:49.656Z,25.44
2022-08-17T07:35:53.953Z,25.53
2022-08-17T07:50:56.175Z,25.93
2022-08-17T08:06:02.394Z,26.59
2022-08-17T08:21:09.712Z,26.88
2022-08-17T08:36:59.343Z,27.22
2022-08-17T08:52:25.149Z,27.74
2022-08-17T09:07:56.273Z,27.55
2022-08-17T09:23:14.026Z,27.95
2022-08-17T09:38:34.626Z,28.61
2022-08-17T09:53:38.407Z,28.83
2022-08-17T10:08:53.327Z,28.39
2022-08-17T10:24:39.267Z,28.73
2022-08-17T10:39:53.846Z,28.75
2022-08-17T10:54:58.120Z,28.90
2022-08-17T11:10:19.386Z,28.93
2022-08-17T11:25:32.386Z,29.14
2022-08-17T11:40:37.512Z,28.31
2022-08-17T11:55:43.110Z,28.94
2022-08-17T12:11:01.825Z,29.18
2022-08-17T12:26:19.813Z,29.69
2022-08-17T12:41:41.865Z,30.03
2022-08-17T12:56:46.366Z,29.84
2022-08-17T13:12:02.073Z,30.00
2022-08-17T13:27:08.687Z,29.65
2022-08-17T13:42:33.049Z,29.45
2022-08-17T13:57:35.852Z,29.31
2022-08-17T14:12:40.103Z,29.38
2022-08-17T14:27:52.908Z,29.51
2022-08-17T14:42:58.081Z,29.48
2022-08-17T14:58:00.136Z,29.30
2022-08-17T15:13:02.508Z,29.12
2022-08-17T15:28:04.936Z,29.17
2022-08-17T15:43:16.285Z,29.11
2022-08-17T15:58:19.331Z,29.00
2022-08-17T16:13:22.808Z,28.78
2022-08-17T16:28:36.247Z,28.43
2022-08-17T16:43:38.872Z,27.88
2022-08-17T16:58:41.333Z,27.39
2022-08-17T17:14:00.287Z,26.88
2022-08-17T17:29:25.645Z,26.20
2022-08-17T17:44:33.466Z,25.54
2022-08-17T17:59:43.777Z,24.78
2022-08-17T18:15:07.350Z,24.07
2022-08-17T18:30:15.646Z,23.48
2022-08-17T18:45:43.249Z,23.08
2022-08-17T19:00:48.648Z,22.76
2022-08-17T19:16:11.610Z,22.45
2022-08-17T19:31:22.446Z,22.04
2022-08-17T19:46:35.618Z,21.97
2022-08-17T20:01:53.200Z,21.90
2022-08-17T20:17:00.496Z,21.77
2022-08-17T20:32:04.505Z,21.57
2022-08-17T20:47:34.897Z,21.36
2022-08-17T21:02:37.449Z,21.23
2022-08-17T21:17:42.136Z,21.16
2022-08-17T21:32:44.907Z,20.85
2022-08-17T21:48:11.375Z,20.68
2022-08-17T22:03:24.468Z,20.39
2022-08-17T22:18:29.150Z,20.08
2022-08-17T22:33:40.170Z,19.81
2022-08-17T22:48:54.106Z,19.68
2022-08-17T23:03:58.207Z,19.57
2022-08-17T23:19:00.349Z,19.37
2022-08-17T23:34:05.649Z,19.14
2022-08-17T23:49:11.089Z,18.83
